Terminal Aerodrome Forecast
Issued by NWS

Home | Current Version | Previous Version | Graphics & Text | Print | Product List | Glossary On
Versions: 1 2 3 4 5 6 7 8 9 10 11 12 13 14 15 16 17 18 19
000
FTUS41 KCLE 140533
TAFFDY
TAF
KFDY 140533Z 1406/1506 VRB03KT P6SM OVC050
     FM141000 VRB03KT P6SM SCT090
     FM141800 20007KT P6SM SCT060
     FM142200 17007KT P6SM SCT050
     FM150200 16007KT P6SM BKN100=

USA.gov is the U.S. government's official web portal to all federal, state and local government web resources and services.